createdAt,value
2023-01-15T00:00:18.335Z,9.71
2023-01-15T00:02:44.708Z,9.65
2023-01-15T00:05:11.054Z,9.57
2023-01-15T00:07:37.367Z,9.58
2023-01-15T00:10:04.147Z,9.53
2023-01-15T00:12:30.462Z,9.44
2023-01-15T00:14:58.116Z,9.42
2023-01-15T00:17:24.804Z,9.35
2023-01-15T00:19:51.126Z,9.37
2023-01-15T00:22:17.419Z,9.24
2023-01-15T00:25:02.387Z,9.34
2023-01-15T00:27:39.559Z,9.26
2023-01-15T00:30:09.380Z,9.33
2023-01-15T00:32:37.509Z,9.28
2023-01-15T00:35:04.130Z,9.27
2023-01-15T00:37:30.436Z,9.24
2023-01-15T00:39:56.802Z,9.18
2023-01-15T00:42:23.174Z,9.12
2023-01-15T00:44:49.683Z,9.05
2023-01-15T00:47:16.031Z,9.03
2023-01-15T00:49:42.970Z,9.08
2023-01-15T00:52:10.129Z,9.07
2023-01-15T00:54:36.458Z,9.10
2023-01-15T00:57:02.958Z,8.86
2023-01-15T00:59:29.497Z,8.96
2023-01-15T01:01:55.940Z,9.05
2023-01-15T01:04:22.338Z,8.94
2023-01-15T01:06:48.625Z,8.95
2023-01-15T01:09:16.470Z,8.95
2023-01-15T01:11:43.245Z,8.99
2023-01-15T01:14:11.795Z,8.95
2023-01-15T01:16:40.083Z,8.86
2023-01-15T01:19:09.616Z,8.70
2023-01-15T01:21:37.985Z,8.87
2023-01-15T01:24:04.690Z,8.79
2023-01-15T01:26:31.388Z,8.71
2023-01-15T01:28:57.897Z,8.58
2023-01-15T01:31:24.727Z,8.55
2023-01-15T01:33:53.625Z,8.53
2023-01-15T01:36:20.971Z,8.45
2023-01-15T01:38:49.644Z,8.45
2023-01-15T01:41:19.761Z,8.37
2023-01-15T01:43:54.092Z,8.36
2023-01-15T01:46:20.559Z,8.36
2023-01-15T01:48:50.404Z,8.31
2023-01-15T01:51:19.623Z,8.29
2023-01-15T01:53:46.178Z,8.19
2023-01-15T01:56:12.630Z,8.43
2023-01-15T01:58:39.486Z,8.26
2023-01-15T02:01:06.296Z,8.09
2023-01-15T02:03:38.099Z,8.19
2023-01-15T02:06:08.667Z,8.07
2023-01-15T02:08:35.479Z,8.09
2023-01-15T02:11:02.202Z,8.07
2023-01-15T02:14:24.450Z,7.89
2023-01-15T02:16:56.652Z,7.88
2023-01-15T02:19:54.535Z,7.80
2023-01-15T02:22:33.292Z,7.75
2023-01-15T02:25:12.200Z,7.86
2023-01-15T02:27:49.105Z,7.84
2023-01-15T02:30:23.023Z,7.91
2023-01-15T02:33:18.032Z,7.74
2023-01-15T02:35:50.235Z,7.60
2023-01-15T02:38:21.257Z,7.76
2023-01-15T02:40:54.240Z,7.52
2023-01-15T02:43:23.704Z,7.50
2023-01-15T02:45:56.996Z,7.43
2023-01-15T02:48:27.265Z,7.39
2023-01-15T02:51:05.579Z,7.22
2023-01-15T02:53:37.574Z,7.29
2023-01-15T02:56:09.796Z,7.26
2023-01-15T02:58:44.974Z,7.30
2023-01-15T03:01:20.016Z,7.11
2023-01-15T03:04:02.032Z,7.16
2023-01-15T03:06:38.532Z,7.20
2023-01-15T03:09:06.213Z,7.22
2023-01-15T03:11:38.524Z,7.03
2023-01-15T03:14:09.110Z,6.97
2023-01-15T03:16:38.341Z,6.89
2023-01-15T03:19:25.996Z,6.90
2023-01-15T03:22:04.752Z,6.94
2023-01-15T03:24:35.805Z,6.90
2023-01-15T03:27:03.448Z,6.84
2023-01-15T03:29:46.171Z,6.70
2023-01-15T03:32:13.231Z,6.74
2023-01-15T03:34:46.226Z,6.75
2023-01-15T03:37:18.675Z,6.58
2023-01-15T03:39:45.222Z,6.65
2023-01-15T03:42:39.430Z,6.70
2023-01-15T03:45:23.279Z,6.65
2023-01-15T03:48:00.471Z,6.64
2023-01-15T03:50:33.393Z,6.62
2023-01-15T03:53:34.266Z,6.63
2023-01-15T03:56:33.000Z,6.53
2023-01-15T03:59:16.773Z,6.49
2023-01-15T04:01:52.480Z,6.40
2023-01-15T04:04:24.772Z,6.49
2023-01-15T04:06:52.305Z,6.47
2023-01-15T04:09:19.440Z,6.44
2023-01-15T04:11:47.013Z,6.53
2023-01-15T04:14:14.764Z,6.35
2023-01-15T04:16:44.170Z,6.44
2023-01-15T04:19:12.069Z,6.39
2023-01-15T04:21:45.289Z,6.36
2023-01-15T04:24:11.606Z,6.23
2023-01-15T04:26:37.909Z,6.38
2023-01-15T04:29:04.227Z,6.15
2023-01-15T04:31:33.261Z,6.10
2023-01-15T04:34:00.110Z,6.20
2023-01-15T04:36:26.457Z,6.07
2023-01-15T04:38:54.483Z,6.13
2023-01-15T04:41:39.269Z,6.07
2023-01-15T04:44:08.399Z,6.07
2023-01-15T04:46:45.478Z,6.09
2023-01-15T04:49:15.383Z,6.12
2023-01-15T04:51:41.946Z,6.06
2023-01-15T04:54:10.696Z,6.05
2023-01-15T04:56:40.796Z,6.07
2023-01-15T04:59:07.294Z,6.11
2023-01-15T05:01:33.765Z,6.05
2023-01-15T05:04:01.601Z,6.01
2023-01-15T05:06:28.857Z,5.85
2023-01-15T05:08:55.267Z,5.86
2023-01-15T05:11:21.597Z,5.74
2023-01-15T05:13:47.922Z,5.85
2023-01-15T05:16:15.650Z,5.78
2023-01-15T05:18:43.131Z,5.85
2023-01-15T05:21:37.227Z,5.69
2023-01-15T05:24:06.539Z,5.67
2023-01-15T05:26:33.497Z,5.71
2023-01-15T05:29:00.616Z,5.78
2023-01-15T05:31:28.522Z,5.76
2023-01-15T05:33:55.814Z,5.83
2023-01-15T05:36:25.593Z,5.81
2023-01-15T05:38:53.685Z,5.73
2023-01-15T05:41:39.610Z,5.74
2023-01-15T05:44:09.735Z,5.86
2023-01-15T05:46:38.965Z,5.75
2023-01-15T05:49:08.216Z,5.69
2023-01-15T05:51:36.293Z,5.81
2023-01-15T05:54:04.454Z,5.91
2023-01-15T05:56:30.870Z,5.93
2023-01-15T05:58:57.342Z,5.98
2023-01-15T06:01:23.703Z,5.86
2023-01-15T06:03:50.093Z,5.92
2023-01-15T06:06:18.391Z,5.87
2023-01-15T06:08:46.018Z,5.92
2023-01-15T06:11:12.932Z,6.04
2023-01-15T06:13:39.996Z,5.99
2023-01-15T06:16:07.561Z,5.85
2023-01-15T06:18:35.413Z,5.79
2023-01-15T06:21:07.062Z,5.75
2023-01-15T06:23:36.508Z,5.72
2023-01-15T06:26:05.861Z,5.72
2023-01-15T06:28:32.667Z,5.60
2023-01-15T06:30:58.987Z,5.67
2023-01-15T06:33:25.530Z,5.59
2023-01-15T06:35:52.282Z,5.72
2023-01-15T06:38:18.599Z,5.64
2023-01-15T06:40:44.938Z,5.76
2023-01-15T06:43:29.917Z,5.87
2023-01-15T06:46:26.358Z,5.89
2023-01-15T06:48:53.656Z,5.77
2023-01-15T06:51:21.358Z,5.71
2023-01-15T06:53:47.823Z,5.64
2023-01-15T06:56:15.001Z,5.82
2023-01-15T06:58:42.427Z,5.76
2023-01-15T07:01:10.901Z,5.65
2023-01-15T07:03:37.390Z,5.76
2023-01-15T07:06:11.787Z,5.73
2023-01-15T07:08:38.821Z,5.68
2023-01-15T07:11:07.668Z,5.58
2023-01-15T07:13:34.712Z,5.62
2023-01-15T07:16:02.352Z,5.67
2023-01-15T07:18:30.170Z,5.61
2023-01-15T07:20:57.764Z,5.77
2023-01-15T07:23:26.037Z,5.65
2023-01-15T07:25:53.633Z,5.67
2023-01-15T07:28:21.613Z,5.65
2023-01-15T07:30:48.035Z,5.71
2023-01-15T07:33:14.596Z,5.63
2023-01-15T07:35:41.370Z,5.64
2023-01-15T07:38:07.712Z,5.58
2023-01-15T07:40:34.057Z,5.62
2023-01-15T07:43:19.042Z,5.56
2023-01-15T07:46:03.813Z,5.67
2023-01-15T07:48:49.021Z,5.77
2023-01-15T07:51:15.476Z,5.79
2023-01-15T07:53:41.823Z,5.88
2023-01-15T07:56:08.705Z,5.74
2023-01-15T07:58:35.109Z,5.71
2023-01-15T08:01:01.564Z,5.75
2023-01-15T08:03:28.080Z,5.79
2023-01-15T08:05:56.757Z,5.82
2023-01-15T08:08:23.169Z,5.81
2023-01-15T08:11:08.243Z,5.71
2023-01-15T08:13:52.971Z,5.84
2023-01-15T08:16:19.311Z,5.89
2023-01-15T08:18:46.583Z,5.74
2023-01-15T08:21:15.602Z,5.58
2023-01-15T08:23:43.374Z,5.61
2023-01-15T08:26:09.703Z,5.60
2023-01-15T08:28:36.038Z,5.81
2023-01-15T08:31:02.366Z,5.85
2023-01-15T08:33:28.735Z,5.92
2023-01-15T08:35:56.925Z,5.81
2023-01-15T08:38:23.208Z,5.72
2023-01-15T08:40:59.233Z,5.87
2023-01-15T08:43:32.385Z,5.76
2023-01-15T08:46:05.253Z,5.81
2023-01-15T08:48:32.530Z,5.78
2023-01-15T08:50:59.228Z,5.67
2023-01-15T08:53:26.280Z,5.72
2023-01-15T08:55:52.619Z,5.66
2023-01-15T08:58:18.982Z,5.70
2023-01-15T09:00:45.367Z,5.66
2023-01-15T09:03:11.745Z,5.70
2023-01-15T09:05:38.357Z,5.73
2023-01-15T09:08:06.347Z,5.65
2023-01-15T09:10:34.084Z,5.71
2023-01-15T09:13:01.821Z,5.83
2023-01-15T09:15:33.287Z,5.88
2023-01-15T09:18:00.463Z,5.75
2023-01-15T09:20:26.875Z,5.66
2023-01-15T09:22:53.431Z,5.70
2023-01-15T09:25:26.359Z,5.75
2023-01-15T09:27:56.238Z,5.72
2023-01-15T09:30:23.508Z,5.71
2023-01-15T09:32:49.862Z,5.83
2023-01-15T09:35:16.374Z,5.85
2023-01-15T09:37:42.945Z,5.83
2023-01-15T09:40:29.440Z,5.81
2023-01-15T09:43:06.731Z,5.91
2023-01-15T09:45:44.277Z,5.86
2023-01-15T09:48:53.406Z,5.94
2023-01-15T09:51:40.533Z,5.89
2023-01-15T09:54:34.324Z,5.96
2023-01-15T09:57:01.266Z,5.87
2023-01-15T09:59:40.703Z,6.00
2023-01-15T10:02:51.426Z,5.88
2023-01-15T10:05:30.551Z,5.81
2023-01-15T10:08:23.917Z,5.88
2023-01-15T10:10:56.752Z,5.79
2023-01-15T10:13:46.382Z,5.77
2023-01-15T10:16:20.646Z,5.89
2023-01-15T10:18:47.157Z,5.85
2023-01-15T10:21:32.061Z,5.97
2023-01-15T10:24:14.680Z,5.76
2023-01-15T10:26:54.123Z,5.80
2023-01-15T10:29:35.636Z,5.83
2023-01-15T10:32:14.044Z,5.84
2023-01-15T10:35:09.199Z,5.85
2023-01-15T10:37:46.864Z,5.83
2023-01-15T10:40:50.663Z,5.89
2023-01-15T10:43:56.340Z,5.93
2023-01-15T10:46:27.466Z,5.90
2023-01-15T10:48:59.765Z,5.83
2023-01-15T10:51:49.339Z,5.84
2023-01-15T10:54:32.899Z,5.91
2023-01-15T10:57:19.264Z,5.98
2023-01-15T11:00:12.416Z,6.18
2023-01-15T11:03:01.699Z,6.17
2023-01-15T11:05:28.856Z,6.19
2023-01-15T11:08:26.317Z,6.29
2023-01-15T11:10:42.157Z,6.13
2023-01-15T11:13:40.980Z,6.20
2023-01-15T11:16:35.810Z,6.07
2023-01-15T11:19:24.110Z,6.08
2023-01-15T11:21:53.440Z,6.00
2023-01-15T11:24:20.756Z,6.04
2023-01-15T11:26:51.360Z,6.04
2023-01-15T11:29:32.406Z,6.19
2023-01-15T11:31:58.827Z,6.15
2023-01-15T11:34:25.226Z,6.15
2023-01-15T11:37:04.784Z,6.22
2023-01-15T11:39:31.931Z,6.77
2023-01-15T11:42:21.729Z,7.51
2023-01-15T11:45:14.722Z,8.43
2023-01-15T11:48:13.701Z,8.95
2023-01-15T11:50:53.761Z,9.63
2023-01-15T11:53:25.287Z,10.01
2023-01-15T11:55:54.908Z,10.18
2023-01-15T11:58:22.090Z,10.58
2023-01-15T12:00:52.863Z,10.56
2023-01-15T12:03:22.736Z,10.64
2023-01-15T12:06:05.410Z,10.53
2023-01-15T12:08:43.444Z,10.50
2023-01-15T12:11:27.185Z,10.55
2023-01-15T12:14:29.561Z,10.46
2023-01-15T12:17:35.210Z,10.15
2023-01-15T12:20:27.243Z,10.34
2023-01-15T12:23:22.215Z,9.90
2023-01-15T12:26:17.399Z,9.42
2023-01-15T12:28:54.123Z,9.10
2023-01-15T12:31:27.321Z,8.61
2023-01-15T12:34:01.147Z,8.53
2023-01-15T12:36:37.842Z,8.24
2023-01-15T12:39:14.177Z,8.09
2023-01-15T12:42:04.431Z,7.92
2023-01-15T12:45:03.788Z,7.66
2023-01-15T12:47:37.632Z,7.57
2023-01-15T12:50:36.600Z,7.35
2023-01-15T12:53:21.890Z,7.26
2023-01-15T12:55:59.884Z,7.38
2023-01-15T12:58:26.224Z,7.35
2023-01-15T13:01:03.880Z,7.24
2023-01-15T13:03:38.669Z,7.17
2023-01-15T13:06:08.557Z,7.19
2023-01-15T13:08:47.101Z,7.07
2023-01-15T13:11:13.712Z,7.13
2023-01-15T13:13:41.845Z,6.97
2023-01-15T13:16:17.726Z,6.98
2023-01-15T13:19:11.530Z,7.01
2023-01-15T13:21:40.277Z,7.07
2023-01-15T13:24:23.826Z,6.86
2023-01-15T13:27:27.517Z,6.97
2023-01-15T13:30:21.980Z,6.95
2023-01-15T13:32:53.684Z,7.09
2023-01-15T13:35:34.060Z,7.03
2023-01-15T13:38:05.369Z,7.13
2023-01-15T13:40:40.884Z,6.89
2023-01-15T13:43:09.857Z,6.98
2023-01-15T13:45:42.814Z,6.87
2023-01-15T13:48:16.766Z,6.95
2023-01-15T13:50:55.080Z,6.96
2023-01-15T13:53:44.448Z,7.02
2023-01-15T13:56:15.136Z,7.08
2023-01-15T13:58:59.556Z,6.88
2023-01-15T14:01:35.809Z,6.76
2023-01-15T14:04:05.611Z,6.80
2023-01-15T14:06:40.872Z,6.82
2023-01-15T14:09:14.213Z,6.63
2023-01-15T14:12:17.341Z,6.74
2023-01-15T14:15:08.894Z,6.65
2023-01-15T14:18:00.624Z,6.62
2023-01-15T14:20:37.976Z,6.70
2023-01-15T14:23:39.122Z,6.80
2023-01-15T14:26:21.870Z,6.84
2023-01-15T14:29:29.201Z,6.89
2023-01-15T14:32:11.092Z,6.65
2023-01-15T14:34:38.168Z,6.65
2023-01-15T14:37:24.754Z,6.71
2023-01-15T14:39:55.457Z,6.62
2023-01-15T14:42:40.555Z,6.67
2023-01-15T14:45:17.943Z,6.57
2023-01-15T14:47:47.382Z,6.53
2023-01-15T14:50:33.295Z,6.59
2023-01-15T14:53:07.444Z,6.67
2023-01-15T14:55:39.411Z,6.61
2023-01-15T14:58:16.975Z,6.66
2023-01-15T15:00:48.420Z,6.57
2023-01-15T15:03:24.923Z,6.63
2023-01-15T15:05:52.014Z,6.62
2023-01-15T15:08:19.760Z,6.50
2023-01-15T15:10:54.331Z,6.64
2023-01-15T15:13:27.746Z,6.59
2023-01-15T15:16:25.309Z,6.63
2023-01-15T15:19:01.466Z,6.58
2023-01-15T15:21:40.102Z,6.63
2023-01-15T15:24:20.380Z,6.71
2023-01-15T15:26:46.809Z,6.64
2023-01-15T15:29:15.331Z,6.56
2023-01-15T15:31:55.954Z,6.67
2023-01-15T15:34:41.281Z,6.50
2023-01-15T15:37:24.769Z,6.44
2023-01-15T15:40:02.342Z,6.37
2023-01-15T15:43:29.359Z,6.44
2023-01-15T15:46:15.607Z,6.40
2023-01-15T15:48:50.953Z,6.46
2023-01-15T15:51:32.953Z,6.47
2023-01-15T15:54:10.433Z,6.51
2023-01-15T15:56:39.046Z,6.44
2023-01-15T15:59:05.750Z,6.31
2023-01-15T16:01:39.433Z,6.37
2023-01-15T16:04:05.961Z,6.32
2023-01-15T16:06:33.175Z,6.37
2023-01-15T16:09:04.407Z,6.42
2023-01-15T16:11:31.452Z,6.22
2023-01-15T16:14:00.230Z,6.33
2023-01-15T16:16:28.339Z,6.21
2023-01-15T16:18:57.968Z,6.21
2023-01-15T16:21:28.898Z,6.26
2023-01-15T16:24:02.253Z,6.27
2023-01-15T16:26:34.211Z,6.27
2023-01-15T16:29:04.280Z,6.28
2023-01-15T16:31:35.783Z,6.22
2023-01-15T16:34:03.436Z,6.22
2023-01-15T16:36:38.517Z,6.24
2023-01-15T16:39:06.780Z,6.26
2023-01-15T16:41:42.218Z,6.21
2023-01-15T16:44:25.129Z,6.20
2023-01-15T16:46:57.595Z,6.34
2023-01-15T16:49:23.955Z,6.17
2023-01-15T16:51:51.838Z,6.24
2023-01-15T16:54:30.337Z,6.30
2023-01-15T16:57:05.423Z,6.35
2023-01-15T16:59:31.799Z,6.25
2023-01-15T17:02:13.419Z,6.16
2023-01-15T17:04:45.478Z,6.01
2023-01-15T17:07:34.991Z,6.03
2023-01-15T17:10:03.564Z,6.04
2023-01-15T17:12:35.625Z,5.95
2023-01-15T17:15:14.079Z,5.90
2023-01-15T17:17:48.319Z,5.90
2023-01-15T17:20:15.991Z,6.02
2023-01-15T17:22:44.927Z,6.13
2023-01-15T17:25:22.696Z,6.10
2023-01-15T17:27:49.163Z,6.15
2023-01-15T17:30:16.214Z,6.07
2023-01-15T17:32:42.782Z,6.02
2023-01-15T17:35:22.512Z,5.93
2023-01-15T17:37:49.171Z,6.01
2023-01-15T17:40:15.676Z,6.10
2023-01-15T17:42:42.124Z,6.03
2023-01-15T17:45:20.110Z,6.09
2023-01-15T17:47:46.465Z,6.17
2023-01-15T17:50:14.430Z,6.10
2023-01-15T17:52:42.567Z,6.17
2023-01-15T17:55:30.537Z,6.14
2023-01-15T17:58:16.433Z,6.19
2023-01-15T18:01:01.703Z,6.01
2023-01-15T18:03:47.709Z,6.07
2023-01-15T18:06:16.124Z,6.13
2023-01-15T18:08:47.415Z,6.19
2023-01-15T18:11:13.730Z,6.12
2023-01-15T18:13:43.001Z,6.05
2023-01-15T18:16:10.120Z,6.00
2023-01-15T18:18:36.802Z,6.04
2023-01-15T18:21:03.700Z,5.89
2023-01-15T18:23:34.247Z,5.92
2023-01-15T18:26:04.785Z,5.90
2023-01-15T18:28:32.568Z,5.79
2023-01-15T18:30:58.947Z,5.69
2023-01-15T18:33:25.272Z,5.74
2023-01-15T18:36:01.904Z,5.74
2023-01-15T18:38:28.290Z,5.81
2023-01-15T18:40:54.746Z,5.81
2023-01-15T18:43:39.485Z,5.70
2023-01-15T18:46:24.735Z,5.49
2023-01-15T18:48:51.074Z,5.51
2023-01-15T18:51:17.407Z,5.61
2023-01-15T18:53:43.751Z,5.69
2023-01-15T18:56:10.117Z,5.65
2023-01-15T18:58:36.407Z,5.48
2023-01-15T19:01:07.303Z,5.28
2023-01-15T19:03:33.759Z,5.32
2023-01-15T19:06:10.136Z,5.47
2023-01-15T19:08:36.478Z,5.47
2023-01-15T19:11:13.188Z,5.52
2023-01-15T19:13:39.620Z,5.28
2023-01-15T19:16:25.185Z,5.39
2023-01-15T19:18:54.817Z,5.39
2023-01-15T19:21:21.501Z,5.24
2023-01-15T19:23:48.158Z,5.27
2023-01-15T19:26:14.801Z,5.23
2023-01-15T19:28:41.160Z,5.33
2023-01-15T19:31:28.012Z,5.35
2023-01-15T19:34:31.166Z,5.10
2023-01-15T19:36:45.777Z,5.23
2023-01-15T19:39:12.177Z,5.11
2023-01-15T19:41:57.252Z,5.22
2023-01-15T19:44:42.730Z,5.27
2023-01-15T19:47:32.526Z,5.20
2023-01-15T19:50:21.828Z,5.06
2023-01-15T19:52:53.495Z,5.10
2023-01-15T19:55:21.398Z,5.11
2023-01-15T19:57:55.065Z,5.28
2023-01-15T20:00:22.884Z,5.08
2023-01-15T20:02:49.572Z,5.20
2023-01-15T20:05:16.996Z,5.03
2023-01-15T20:07:43.679Z,5.16
2023-01-15T20:10:13.735Z,5.33
2023-01-15T20:12:59.220Z,5.09
2023-01-15T20:15:26.542Z,4.96
2023-01-15T20:17:53.070Z,5.18
2023-01-15T20:20:19.647Z,5.37
2023-01-15T20:22:46.045Z,5.30
2023-01-15T20:25:12.456Z,5.19
2023-01-15T20:27:40.055Z,5.20
2023-01-15T20:30:15.712Z,5.28
2023-01-15T20:32:44.803Z,5.28
2023-01-15T20:35:14.268Z,5.21
2023-01-15T20:37:41.204Z,5.34
2023-01-15T20:40:09.025Z,5.20
2023-01-15T20:42:54.707Z,5.31
2023-01-15T20:45:21.307Z,5.27
2023-01-15T20:48:06.297Z,5.22
2023-01-15T20:50:35.904Z,5.37
2023-01-15T20:53:04.684Z,5.37
2023-01-15T20:55:45.691Z,5.37
2023-01-15T20:58:21.228Z,5.44
2023-01-15T21:00:47.637Z,5.45
2023-01-15T21:03:14.077Z,5.40
2023-01-15T21:05:40.406Z,5.52
2023-01-15T21:08:06.756Z,5.55
2023-01-15T21:10:33.042Z,5.47
2023-01-15T21:12:59.495Z,5.43
2023-01-15T21:15:25.837Z,5.47
2023-01-15T21:17:52.207Z,5.34
2023-01-15T21:20:18.556Z,5.40
2023-01-15T21:22:45.015Z,5.40
2023-01-15T21:25:13.021Z,5.44
2023-01-15T21:27:39.866Z,5.34
2023-01-15T21:30:07.780Z,5.45
2023-01-15T21:32:34.360Z,5.33
2023-01-15T21:35:00.673Z,5.19
2023-01-15T21:37:27.046Z,5.38
2023-01-15T21:39:53.362Z,5.42
2023-01-15T21:42:39.950Z,5.50
2023-01-15T21:45:07.773Z,5.45
2023-01-15T21:47:36.627Z,5.55
2023-01-15T21:50:06.122Z,5.58
2023-01-15T21:52:33.766Z,5.49
2023-01-15T21:55:00.406Z,5.20
2023-01-15T21:57:28.900Z,5.50
2023-01-15T21:59:55.303Z,5.42
2023-01-15T22:02:23.143Z,5.41
2023-01-15T22:04:49.778Z,5.46
2023-01-15T22:07:17.867Z,5.35
2023-01-15T22:09:44.534Z,5.28
2023-01-15T22:12:12.169Z,5.27
2023-01-15T22:14:38.602Z,5.34
2023-01-15T22:17:05.645Z,5.33
2023-01-15T22:19:32.548Z,5.06
2023-01-15T22:22:08.045Z,5.28
2023-01-15T22:24:36.807Z,5.25
2023-01-15T22:27:06.392Z,5.32
2023-01-15T22:29:38.114Z,5.39
2023-01-15T22:32:05.714Z,5.22
2023-01-15T22:34:32.024Z,5.16
2023-01-15T22:36:58.496Z,5.18
2023-01-15T22:39:25.867Z,5.27
2023-01-15T22:42:10.860Z,5.22
2023-01-15T22:44:37.385Z,5.15
2023-01-15T22:47:05.043Z,5.20
2023-01-15T22:49:31.905Z,5.28
2023-01-15T22:51:58.233Z,5.08
2023-01-15T22:54:24.633Z,5.18
2023-01-15T22:56:50.942Z,5.20
2023-01-15T22:59:17.455Z,5.22
2023-01-15T23:01:43.887Z,5.30
2023-01-15T23:04:19.097Z,5.37
2023-01-15T23:06:45.610Z,5.19
2023-01-15T23:09:12.786Z,5.27
2023-01-15T23:11:39.347Z,5.19
2023-01-15T23:14:07.632Z,5.15
2023-01-15T23:16:34.667Z,5.19
2023-01-15T23:19:01.791Z,5.17
2023-01-15T23:21:28.611Z,5.26
2023-01-15T23:23:56.794Z,5.16
2023-01-15T23:26:24.329Z,5.30
2023-01-15T23:28:50.897Z,5.25
2023-01-15T23:31:18.689Z,5.19
2023-01-15T23:33:45.535Z,5.12
2023-01-15T23:36:12.217Z,5.07
2023-01-15T23:38:40.171Z,5.05
2023-01-15T23:41:14.003Z,4.93
2023-01-15T23:43:59.502Z,4.99
2023-01-15T23:46:35.447Z,4.97
2023-01-15T23:49:07.267Z,5.05
2023-01-15T23:51:33.725Z,5.06
2023-01-15T23:54:01.276Z,5.17
2023-01-15T23:56:29.594Z,5.19
2023-01-15T23:58:56.926Z,5.24
